Time;durP1;ratioP1;P1;durP2;ratioP2;P2;SDS_P1;SDS_P2;PMS_P1;PMS_P2;Temp;Humidity;BMP_temperature;BMP_pressure;BME280_temperature;BME280_humidity;BME280_pressure;Samples;Min_cycle;Max_cycle;Signal;HPM_P1;HPM_P2
2022/04/11 00:00:05;;;;;;;9.40;5.03;;;;;;;4.50;91.29;96463.69;5067049;28;20202;-84
2022/04/11 00:02:32;;;;;;;4.43;3.03;;;;;;;4.38;92.56;96463.34;5059334;28;20202;-84
2022/04/11 00:04:59;;;;;;;2.77;1.77;;;;;;;4.39;92.08;96462.31;5062600;28;20221;-84
2022/04/11 00:07:26;;;;;;;1.00;0.90;;;;;;;4.38;90.29;96465.19;5061897;28;20264;-84
2022/04/11 00:09:53;;;;;;;2.03;1.50;;;;;;;4.15;90.75;96465.34;5061105;28;20189;-83
2022/04/11 00:12:21;;;;;;;4.43;1.77;;;;;;;3.92;92.89;96451.25;5053499;28;20464;-84
2022/04/11 00:14:48;;;;;;;4.73;1.87;;;;;;;3.92;93.78;96453.94;5058366;28;20241;-83
2022/04/11 00:17:16;;;;;;;2.03;1.30;;;;;;;4.07;93.46;96457.44;5056099;28;20288;-84
2022/04/11 00:19:44;;;;;;;0.77;0.70;;;;;;;4.12;92.09;96453.16;5059216;28;20210;-84
2022/04/11 00:22:11;;;;;;;1.10;1.00;;;;;;;4.15;91.04;96460.00;5059862;28;20214;-84
2022/04/11 00:24:38;;;;;;;3.43;1.33;;;;;;;4.25;91.77;96460.53;5058698;28;20201;-84
2022/04/11 00:27:05;;;;;;;2.77;1.70;;;;;;;4.37;92.06;96459.00;5063924;28;20269;-84
2022/04/11 00:29:33;;;;;;;2.97;2.10;;;;;;;4.42;91.89;96469.16;5076627;28;20206;-84
2022/04/11 00:32:00;;;;;;;2.63;1.90;;;;;;;4.38;91.70;96457.16;5062032;28;20201;-84
2022/04/11 00:34:28;;;;;;;2.17;1.60;;;;;;;4.33;90.41;96457.75;5054667;28;20300;-83
2022/04/11 00:36:56;;;;;;;2.40;1.90;;;;;;;4.32;90.63;96464.09;5054418;28;20213;-84
2022/04/11 00:39:23;;;;;;;2.17;1.83;;;;;;;4.21;91.89;96453.06;5054741;28;20205;-84
2022/04/11 00:41:50;;;;;;;2.70;2.00;;;;;;;4.20;92.36;96438.88;5054755;28;20220;-84
2022/04/11 00:44:17;;;;;;;2.63;1.83;;;;;;;4.21;92.25;96437.84;5061576;28;20198;-84
2022/04/11 00:46:44;;;;;;;3.60;1.77;;;;;;;4.23;93.43;96451.88;5062072;28;20229;-83
2022/04/11 00:49:11;;;;;;;1.07;0.97;;;;;;;4.18;92.17;96439.03;5063700;28;20214;-83
2022/04/11 00:51:41;;;;;;;0.93;0.93;;;;;;;4.21;90.00;96456.56;5063726;28;20205;-84
2022/04/11 00:54:08;;;;;;;1.00;0.90;;;;;;;4.06;90.24;96439.75;5058130;28;20214;-83
2022/04/11 00:56:37;;;;;;;0.90;0.90;;;;;;;4.01;90.85;96432.28;5052736;28;20198;-84
2022/04/11 00:59:04;;;;;;;2.77;1.23;;;;;;;3.95;88.26;96430.34;5053923;28;20216;-83
2022/04/11 01:01:31;;;;;;;1.20;1.03;;;;;;;3.87;88.61;96426.97;5061035;28;20236;-84
2022/04/11 01:03:59;;;;;;;1.90;1.20;;;;;;;3.86;88.80;96428.78;5061759;28;20280;-83
2022/04/11 01:06:26;;;;;;;1.07;0.97;;;;;;;3.93;88.65;96418.19;5058321;28;20217;-83
2022/04/11 01:08:56;;;;;;;2.37;1.13;;;;;;;4.02;87.74;96420.56;5055757;28;20206;-84
2022/04/11 01:11:24;;;;;;;1.43;0.90;;;;;;;4.04;87.56;96415.03;5054819;28;20207;-83
2022/04/11 01:13:51;;;;;;;1.10;1.00;;;;;;;3.94;88.24;96409.16;5058399;28;20198;-84
2022/04/11 01:16:28;;;;;;;1.17;0.93;;;;;;;3.85;88.91;96399.59;5052762;28;20245;-83
2022/04/11 01:18:55;;;;;;;2.03;1.03;;;;;;;3.83;89.24;96393.63;5056042;28;20329;-82
2022/04/11 01:21:23;;;;;;;0.80;0.80;;;;;;;3.93;89.90;96388.81;5060168;28;20202;-84
2022/04/11 01:23:52;;;;;;;0.80;0.80;;;;;;;3.99;90.58;96396.91;5057452;28;20209;-84
2022/04/11 01:26:21;;;;;;;0.80;0.80;;;;;;;4.10;90.56;96393.72;5053643;28;20225;-83
2022/04/11 01:28:49;;;;;;;1.03;0.90;;;;;;;4.12;87.69;96396.22;5058447;28;20213;-83
2022/04/11 01:31:16;;;;;;;0.73;0.73;;;;;;;4.19;84.91;96389.09;5054616;28;20209;-82
2022/04/11 01:33:44;;;;;;;1.27;0.80;;;;;;;4.27;83.64;96396.16;5062003;28;20202;-84
2022/04/11 01:36:11;;;;;;;0.80;0.80;;;;;;;4.25;81.71;96392.88;5056887;28;20233;-83
2022/04/11 01:38:38;;;;;;;0.70;0.70;;;;;;;4.19;80.89;96389.09;5059356;28;20214;-83
2022/04/11 01:41:07;;;;;;;1.67;1.20;;;;;;;4.18;82.54;96390.13;5061663;28;20211;-83
2022/04/11 01:43:34;;;;;;;0.87;0.87;;;;;;;4.17;83.69;96388.44;5060597;28;20216;-84
2022/04/11 01:46:01;;;;;;;0.87;0.83;;;;;;;4.10;83.51;96372.34;5061016;28;20245;-84
2022/04/11 01:48:42;;;;;;;1.13;0.87;;;;;;;4.15;83.82;96387.84;5056865;28;20275;-82
2022/04/11 01:51:09;;;;;;;1.13;0.93;;;;;;;4.05;84.58;96385.47;5056949;28;20206;-84
2022/04/11 01:53:36;;;;;;;1.73;0.93;;;;;;;3.95;85.75;96384.94;5058792;28;20292;-83
2022/04/11 01:56:04;;;;;;;0.93;0.90;;;;;;;4.00;87.26;96379.00;5059090;28;20205;-83
2022/04/11 01:58:34;;;;;;;0.80;0.80;;;;;;;4.07;87.21;96377.28;5058466;28;20225;-84
2022/04/11 02:01:01;;;;;;;1.17;1.00;;;;;;;4.00;85.59;96365.66;5073277;28;20285;-84
2022/04/11 02:03:30;;;;;;;1.27;0.90;;;;;;;4.02;86.15;96366.31;5059069;28;20212;-84
2022/04/11 02:05:58;;;;;;;0.70;0.70;;;;;;;4.00;85.45;96361.16;5052864;28;20214;-84
2022/04/11 02:08:25;;;;;;;0.60;0.60;;;;;;;4.11;84.37;96360.66;5056740;28;20202;-83
2022/04/11 02:11:01;;;;;;;1.50;0.70;;;;;;;4.16;83.67;96363.59;5061105;28;20209;-83
2022/04/11 02:13:28;;;;;;;0.53;0.53;;;;;;;4.28;83.08;96366.59;5078063;28;20204;-83
2022/04/11 02:15:59;;;;;;;1.23;1.00;;;;;;;4.33;83.86;96358.84;5034797;28;20230;-84
2022/04/11 02:18:26;;;;;;;0.83;0.80;;;;;;;4.38;83.53;96358.25;5021880;28;20229;-83
2022/04/11 02:20:54;;;;;;;1.30;1.20;;;;;;;4.37;83.39;96351.25;5037843;28;20199;-83
2022/04/11 02:23:21;;;;;;;0.93;0.80;;;;;;;4.23;83.22;96349.47;5016149;28;20345;-83
2022/04/11 02:25:48;;;;;;;0.70;0.70;;;;;;;4.13;84.59;96333.75;5021149;28;20226;-83
2022/04/11 02:28:15;;;;;;;2.63;0.73;;;;;;;4.02;86.07;96339.59;5020700;28;20203;-83
2022/04/11 02:30:43;;;;;;;2.27;0.90;;;;;;;3.99;87.65;96332.81;5017018;28;20218;-83
2022/04/11 02:33:12;;;;;;;1.67;1.10;;;;;;;4.00;87.83;96328.25;5027503;28;20268;-83
2022/04/11 02:35:40;;;;;;;0.77;0.77;;;;;;;4.12;87.30;96321.41;5018464;28;20203;-83
2022/04/11 02:38:07;;;;;;;1.73;0.90;;;;;;;3.96;88.18;96313.63;5020469;28;20253;-84
2022/04/11 02:40:36;;;;;;;1.13;0.90;;;;;;;3.87;88.87;96307.59;5019287;28;20202;-83
2022/04/11 02:43:16;;;;;;;1.20;0.90;;;;;;;3.86;87.75;96299.75;5022060;28;20194;-83
2022/04/11 02:46:05;;;;;;;1.30;0.80;;;;;;;3.88;86.26;96293.22;5042599;28;20289;-83
2022/04/11 02:48:38;;;;;;;2.13;0.90;;;;;;;3.91;87.77;96284.00;5023401;28;20202;-83
2022/04/11 02:51:34;;;;;;;1.07;0.90;;;;;;;3.88;86.89;96276.38;5033325;28;20241;-83
2022/04/11 02:54:09;;;;;;;2.00;0.80;;;;;;;3.89;87.23;96280.69;5030023;28;20267;-83
2022/04/11 02:56:41;;;;;;;2.80;0.90;;;;;;;3.78;87.85;96258.81;5026872;28;20198;-83
2022/04/11 02:59:09;;;;;;;0.90;0.80;;;;;;;3.69;87.90;96257.28;5018462;28;20228;-83
2022/04/11 03:01:36;;;;;;;1.53;0.90;;;;;;;3.65;88.56;96250.69;5026136;28;20206;-82
2022/04/11 03:04:07;;;;;;;3.13;0.90;;;;;;;3.64;89.02;96243.69;5029368;28;20222;-84
2022/04/11 03:06:49;;;;;;;1.93;0.80;;;;;;;3.68;87.65;96228.91;5029420;28;20230;-83
2022/04/11 03:09:16;;;;;;;0.87;0.77;;;;;;;3.83;86.48;96218.16;5029815;28;20206;-83
2022/04/11 03:11:43;;;;;;;1.63;1.10;;;;;;;3.83;86.31;96222.72;5023283;28;20234;-83
2022/04/11 03:14:11;;;;;;;2.33;0.97;;;;;;;3.78;86.80;96210.75;5016278;28;20227;-83
2022/04/11 03:16:40;;;;;;;1.00;0.90;;;;;;;3.86;87.48;96211.63;5020288;28;20257;-83
2022/04/11 03:19:09;;;;;;;1.40;1.23;;;;;;;3.92;86.64;96219.69;5025921;28;20261;-83
2022/04/11 03:21:37;;;;;;;3.70;0.97;;;;;;;3.96;86.96;96206.78;5022183;28;20195;-83
2022/04/11 03:24:09;;;;;;;0.80;0.80;;;;;;;3.86;86.39;96208.94;5027082;28;20257;-83
2022/04/11 03:26:37;;;;;;;2.27;0.90;;;;;;;3.77;87.78;96202.91;5023621;28;20215;-83
2022/04/11 03:29:08;;;;;;;1.30;0.90;;;;;;;3.66;87.99;96193.56;5019991;28;20258;-83
2022/04/11 03:31:35;;;;;;;1.03;0.87;;;;;;;3.72;88.17;96208.00;5024071;28;20262;-83
2022/04/11 03:34:03;;;;;;;1.03;0.90;;;;;;;3.74;88.35;96204.09;5023430;28;20296;-83
2022/04/11 03:36:32;;;;;;;1.00;0.80;;;;;;;3.75;89.12;96205.75;5025552;28;20202;-84
2022/04/11 03:38:59;;;;;;;3.30;1.20;;;;;;;3.78;87.74;96210.75;5023504;28;20206;-83
2022/04/11 03:41:29;;;;;;;2.37;1.10;;;;;;;3.73;88.03;96204.31;5024435;28;20291;-83
2022/04/11 03:44:08;;;;;;;8.77;1.80;;;;;;;3.59;88.59;96194.53;5025371;28;20264;-83
2022/04/11 03:46:35;;;;;;;1.70;1.27;;;;;;;3.42;89.88;96186.75;5012955;28;20225;-83
2022/04/11 03:49:03;;;;;;;1.70;1.30;;;;;;;3.30;91.90;96182.97;5019114;28;20237;-83
2022/04/11 03:51:33;;;;;;;5.53;5.13;;;;;;;3.30;92.20;96184.78;5026897;28;20209;-85
2022/04/11 03:54:00;;;;;;;3.13;1.40;;;;;;;3.29;92.91;96177.81;5040272;28;20220;-83
2022/04/11 03:56:27;;;;;;;1.67;1.00;;;;;;;3.25;93.13;96179.19;5020578;28;20269;-82
2022/04/11 03:58:55;;;;;;;1.30;1.00;;;;;;;3.26;93.56;96186.16;5020386;28;20278;-84
2022/04/11 04:01:23;;;;;;;4.87;1.40;;;;;;;3.25;93.95;96181.84;5029255;28;20284;-84
2022/04/11 04:03:50;;;;;;;2.07;0.87;;;;;;;3.18;93.19;96173.78;5021683;28;20250;-83
2022/04/11 04:06:17;;;;;;;3.37;1.10;;;;;;;3.22;93.47;96183.06;5027850;28;20218;-85
2022/04/11 04:08:47;;;;;;;0.80;0.73;;;;;;;3.12;93.42;96171.88;5031466;28;20203;-82
2022/04/11 04:11:18;;;;;;;2.67;1.00;;;;;;;3.15;93.74;96178.69;5024284;28;20199;-82
2022/04/11 04:13:56;;;;;;;1.37;1.10;;;;;;;3.21;92.69;96175.25;5028278;28;20206;-84
2022/04/11 04:16:25;;;;;;;3.43;1.03;;;;;;;3.18;92.86;96178.28;5016954;28;20253;-83
2022/04/11 04:18:58;;;;;;;1.47;1.07;;;;;;;3.18;92.53;96183.63;5024293;28;20290;-83
2022/04/11 04:21:26;;;;;;;2.60;1.63;;;;;;;3.12;93.43;96179.03;5021020;28;20206;-84
2022/04/11 04:23:54;;;;;;;3.27;1.30;;;;;;;3.02;93.57;96171.34;5023051;28;20215;-83
2022/04/11 04:26:25;;;;;;;3.27;1.30;;;;;;;3.00;94.13;96178.69;5035504;28;20233;-83
2022/04/11 04:28:53;;;;;;;2.37;1.20;;;;;;;3.01;94.03;96173.19;5023786;28;20285;-83
2022/04/11 04:31:23;;;;;;;1.50;1.10;;;;;;;2.99;93.59;96163.69;5024806;28;20232;-82
2022/04/11 04:33:50;;;;;;;2.73;1.37;;;;;;;3.01;94.35;96178.50;5021038;28;20270;-83
2022/04/11 04:36:17;;;;;;;2.37;1.07;;;;;;;3.00;93.78;96176.84;5026543;28;20267;-83
2022/04/11 04:38:45;;;;;;;1.40;1.07;;;;;;;3.10;94.13;96189.06;5020936;28;20237;-83
2022/04/11 04:41:13;;;;;;;2.10;1.50;;;;;;;3.07;93.88;96176.94;5018501;28;20217;-83
2022/04/11 04:43:41;;;;;;;3.67;1.77;;;;;;;3.10;94.37;96191.75;5026292;28;20218;-83
2022/04/11 04:46:08;;;;;;;3.37;1.87;;;;;;;3.09;94.38;96182.06;5013547;28;20218;-83
2022/04/11 04:48:41;;;;;;;2.80;2.00;;;;;;;3.12;93.40;96179.03;5024203;28;20210;-83
2022/04/11 04:51:10;;;;;;;2.87;1.90;;;;;;;2.99;93.80;96174.38;5038552;28;20243;-85
2022/04/11 04:53:41;;;;;;;2.23;1.73;;;;;;;3.03;94.65;96181.00;5022809;28;20195;-83
2022/04/11 04:56:08;;;;;;;1.90;1.60;;;;;;;2.89;95.20;96182.66;5026708;28;20217;-82
2022/04/11 04:58:44;;;;;;;2.57;1.60;;;;;;;2.88;96.12;96196.22;5018799;28;20207;-84
2022/04/11 05:01:11;;;;;;;1.43;1.20;;;;;;;2.84;96.49;96203.75;5039421;28;20221;-84
2022/04/11 05:03:39;;;;;;;3.17;1.30;;;;;;;2.72;96.64;96199.91;5024217;28;20203;-84
2022/04/11 05:06:07;;;;;;;2.77;1.43;;;;;;;2.60;97.75;96212.88;5021601;28;20225;-84
2022/04/11 05:08:35;;;;;;;1.77;1.30;;;;;;;2.54;99.07;96218.09;5022048;28;20206;-83
2022/04/11 05:11:03;;;;;;;2.50;1.30;;;;;;;2.55;99.85;96217.09;5029258;28;20194;-84
2022/04/11 05:13:31;;;;;;;1.63;1.17;;;;;;;2.63;99.03;96223.16;5021129;28;20209;-84
2022/04/11 05:15:59;;;;;;;3.83;1.67;;;;;;;2.69;99.37;96218.09;5021780;28;20234;-83
2022/04/11 05:18:28;;;;;;;2.43;1.20;;;;;;;2.79;98.57;96234.66;5018779;28;20209;-84
2022/04/11 05:20:56;;;;;;;1.80;1.43;;;;;;;2.75;98.59;96242.19;5018200;28;20198;-84
2022/04/11 05:23:26;;;;;;;2.50;1.53;;;;;;;2.81;98.83;96244.09;5025456;28;20238;-82
2022/04/11 05:25:56;;;;;;;3.00;1.47;;;;;;;2.86;97.99;96248.88;5027091;28;20213;-83
2022/04/11 05:28:24;;;;;;;1.93;1.30;;;;;;;2.90;97.77;96248.31;5019745;28;20226;-83
2022/04/11 05:31:00;;;;;;;2.00;1.57;;;;;;;2.91;96.92;96257.16;5019906;28;20201;-83
2022/04/11 05:33:27;;;;;;;4.00;2.17;;;;;;;2.90;97.77;96258.16;5020706;28;20203;-84
2022/04/11 05:35:56;;;;;;;1.80;1.70;;;;;;;2.93;97.09;96263.97;5025976;28;20198;-84
2022/04/11 05:38:23;;;;;;;1.93;1.50;;;;;;;2.99;97.05;96276.56;5021917;28;20206;-84
2022/04/11 05:40:52;;;;;;;3.33;1.80;;;;;;;2.92;97.44;96272.97;5019341;28;20226;-83
2022/04/11 05:43:28;;;;;;;1.60;1.50;;;;;;;3.06;97.13;96289.19;5025476;28;20300;-83
2022/04/11 05:45:55;;;;;;;2.90;1.50;;;;;;;2.93;96.03;96287.13;5015832;28;20213;-84
2022/04/11 05:48:23;;;;;;;5.70;2.17;;;;;;;2.93;97.74;96298.63;5028074;28;20382;-83
2022/04/11 05:50:51;;;;;;;2.17;1.80;;;;;;;2.88;97.99;96294.88;5018653;28;20199;-83
2022/04/11 05:53:19;;;;;;;2.90;1.63;;;;;;;2.89;97.36;96296.53;5022516;28;20214;-84
2022/04/11 05:55:47;;;;;;;2.33;2.00;;;;;;;2.83;97.93;96319.41;5024166;28;20277;-84
2022/04/11 05:58:15;;;;;;;4.93;1.90;;;;;;;2.83;99.07;96322.06;5027268;28;20218;-83
2022/04/11 06:00:42;;;;;;;2.97;1.97;;;;;;;2.81;99.13;96318.75;5025272;28;20224;-83
2022/04/11 06:03:10;;;;;;;5.17;2.30;;;;;;;2.82;98.57;96307.09;5020209;28;20937;-83
2022/04/11 06:05:39;;;;;;;4.63;1.93;;;;;;;2.84;98.23;96315.72;5023932;28;20199;-83
2022/04/11 06:08:07;;;;;;;2.50;1.67;;;;;;;2.86;98.65;96321.72;5018495;28;20233;-84
2022/04/11 06:10:38;;;;;;;3.50;2.10;;;;;;;2.85;98.63;96312.06;5028945;28;20206;-84
2022/04/11 06:13:06;;;;;;;3.80;1.90;;;;;;;2.96;98.83;96322.28;5018632;28;20231;-85
2022/04/11 06:15:33;;;;;;;5.87;2.30;;;;;;;2.91;98.33;96321.16;5022774;28;20238;-83
2022/04/11 06:18:01;;;;;;;2.70;1.87;;;;;;;2.89;99.71;96318.66;5016629;28;20234;-84
2022/04/11 06:20:28;;;;;;;8.00;2.70;;;;;;;2.94;99.35;96318.97;5023135;28;20301;-84
2022/04/11 06:22:57;;;;;;;4.33;3.50;;;;;;;2.96;98.18;96305.44;5036121;28;20268;-83
2022/04/11 06:25:25;;;;;;;2.77;2.47;;;;;;;3.06;98.15;96315.84;5027971;28;20226;-84
2022/04/11 06:27:52;;;;;;;5.93;3.30;;;;;;;3.07;98.12;96304.13;5025980;28;20261;-83
2022/04/11 06:30:19;;;;;;;3.63;2.60;;;;;;;3.04;99.13;96306.19;5030438;28;20275;-84
2022/04/11 06:32:46;;;;;;;16.47;8.60;;;;;;;3.08;98.28;96306.63;5039840;28;20279;-83
2022/04/11 06:35:14;;;;;;;28.40;14.43;;;;;;;3.04;98.07;96294.69;5025288;28;20228;-83
2022/04/11 06:37:41;;;;;;;22.60;13.30;;;;;;;3.14;98.04;96313.91;5023887;28;20218;-84
2022/04/11 06:40:11;;;;;;;14.53;9.17;;;;;;;3.09;98.24;96307.47;5023104;28;20280;-83
2022/04/11 06:42:39;;;;;;;16.47;9.40;;;;;;;3.08;98.13;96303.13;5036896;28;20221;-83
2022/04/11 06:45:25;;;;;;;16.47;8.47;;;;;;;2.97;99.18;96304.44;5018655;28;20287;-83
2022/04/11 06:47:52;;;;;;;3.00;2.27;;;;;;;2.98;99.95;96290.91;5022601;28;20222;-83
2022/04/11 06:50:20;;;;;;;3.90;2.87;;;;;;;3.09;99.24;96296.78;5028003;28;20205;-83
2022/04/11 06:52:47;;;;;;;1.90;1.50;;;;;;;3.16;99.06;96292.34;5048180;28;20203;-83
2022/04/11 06:55:16;;;;;;;3.80;1.60;;;;;;;3.13;98.32;96287.41;5021367;28;20198;-83
2022/04/11 06:57:43;;;;;;;2.80;1.60;;;;;;;3.14;97.79;96281.06;5023764;28;20218;-84
2022/04/11 07:00:10;;;;;;;6.60;1.70;;;;;;;3.14;99.03;96291.75;5039687;28;20210;-84
2022/04/11 07:02:38;;;;;;;4.93;1.93;;;;;;;3.15;98.71;96293.41;5017841;28;20222;-83
2022/04/11 07:05:06;;;;;;;4.60;2.37;;;;;;;3.18;98.58;96296.50;5015413;28;20199;-84
2022/04/11 07:07:33;;;;;;;4.77;2.57;;;;;;;3.24;98.95;96292.25;5023016;28;20225;-83
2022/04/11 07:10:00;;;;;;;3.30;2.00;;;;;;;3.21;99.69;96276.63;5030175;28;20233;-83
2022/04/11 07:12:29;;;;;;;3.67;1.63;;;;;;;3.26;99.49;96271.56;5028792;28;20256;-83
2022/04/11 07:14:56;;;;;;;3.70;2.40;;;;;;;3.26;99.48;96277.72;5029036;28;20229;-83
2022/04/11 07:17:23;;;;;;;5.07;3.20;;;;;;;3.20;100.00;96278.47;5063159;28;20210;-82
2022/04/11 07:19:51;;;;;;;3.03;1.63;;;;;;;3.27;100.00;96281.22;5067962;28;20197;-83
2022/04/11 07:22:21;;;;;;;9.70;2.50;;;;;;;3.29;100.00;96280.03;5058923;28;20198;-82
2022/04/11 07:24:48;;;;;;;3.17;1.70;;;;;;;3.30;100.00;96275.53;5053092;28;20593;-83
2022/04/11 07:27:15;;;;;;;2.03;1.40;;;;;;;3.36;100.00;96266.75;5060137;28;20304;-83
2022/04/11 07:29:44;;;;;;;2.13;1.50;;;;;;;3.39;100.00;96266.41;5059209;28;20201;-83
2022/04/11 07:32:12;;;;;;;1.13;1.03;;;;;;;3.45;100.00;96262.13;5058206;28;20216;-83
2022/04/11 07:34:40;;;;;;;1.47;1.37;;;;;;;3.54;100.00;96269.84;5066609;28;20216;-84
2022/04/11 07:37:08;;;;;;;3.03;1.40;;;;;;;3.61;100.00;96268.06;5052067;28;20273;-82
2022/04/11 07:39:36;;;;;;;2.10;1.40;;;;;;;3.68;100.00;96281.50;5056927;28;20214;-82
2022/04/11 07:42:03;;;;;;;5.07;2.83;;;;;;;3.62;100.00;96267.06;5057831;28;20221;-84
2022/04/11 07:44:31;;;;;;;2.60;1.53;;;;;;;3.55;100.00;96266.16;5056306;28;20213;-82
2022/04/11 07:46:59;;;;;;;4.00;1.70;;;;;;;3.61;100.00;96265.41;5057996;28;20236;-83
2022/04/11 07:49:26;;;;;;;6.27;4.37;;;;;;;3.66;100.00;96270.16;5076632;28;20213;-83
2022/04/11 07:51:53;;;;;;;3.27;1.23;;;;;;;3.64;100.00;96262.38;5065346;28;20296;-83
2022/04/11 07:54:21;;;;;;;1.57;1.13;;;;;;;3.74;100.00;96275.41;5061084;28;20220;-83
2022/04/11 07:56:48;;;;;;;1.23;1.00;;;;;;;3.83;100.00;96268.09;5053088;28;20200;-83
2022/04/11 07:59:15;;;;;;;1.50;1.00;;;;;;;4.25;100.00;96278.78;5055827;28;20272;-85
2022/04/11 08:01:43;;;;;;;2.67;0.90;;;;;;;4.76;98.69;96262.50;5061362;28;20194;-84
2022/04/11 08:04:11;;;;;;;1.30;0.90;;;;;;;5.27;93.34;96258.44;5052848;28;20325;-83
2022/04/11 08:06:38;;;;;;;0.90;0.87;;;;;;;5.63;85.14;96251.97;5054787;28;20197;-83
2022/04/11 08:09:06;;;;;;;2.43;0.90;;;;;;;6.10;83.87;96260.97;5079516;28;20340;-83
2022/04/11 08:11:33;;;;;;;2.50;0.90;;;;;;;6.57;82.31;96259.94;5060382;28;20245;-83
2022/04/11 08:14:00;;;;;;;0.87;0.80;;;;;;;6.83;77.66;96257.25;5079425;28;20236;-83
2022/04/11 08:16:27;;;;;;;2.57;0.87;;;;;;;7.07;74.09;96253.06;5078102;28;20234;-82
2022/04/11 08:18:54;;;;;;;1.97;1.10;;;;;;;7.31;73.68;96247.03;5058546;28;20209;-83
2022/04/11 08:21:23;;;;;;;1.47;0.90;;;;;;;7.43;71.88;96245.31;5063615;28;20197;-83
2022/04/11 08:23:50;;;;;;;1.90;1.00;;;;;;;7.67;70.62;96240.22;5058688;28;20213;-83
2022/04/11 08:26:17;;;;;;;1.37;0.90;;;;;;;7.93;68.85;96242.78;5060290;28;20213;-83
2022/04/11 08:28:45;;;;;;;1.97;1.10;;;;;;;8.30;68.01;96231.16;5061020;28;20222;-83
2022/04/11 08:31:12;;;;;;;1.87;1.00;;;;;;;8.68;64.49;96220.28;5064222;28;20220;-84
2022/04/11 08:33:39;;;;;;;1.27;0.90;;;;;;;8.94;67.03;96221.88;5059060;28;20205;-83
2022/04/11 08:36:06;;;;;;;1.63;1.10;;;;;;;9.40;61.95;96220.56;5058092;28;20229;-84
2022/04/11 08:38:35;;;;;;;1.83;1.00;;;;;;;9.59;58.43;96216.81;5061470;28;20305;-84
2022/04/11 08:41:04;;;;;;;2.60;1.40;;;;;;;9.92;55.45;96224.44;5060391;28;20210;-84
2022/04/11 08:43:32;;;;;;;1.80;1.10;;;;;;;10.21;56.68;96222.78;5067110;28;20201;-84
2022/04/11 08:46:02;;;;;;;4.00;1.30;;;;;;;10.32;52.64;96219.28;5057423;28;20259;-84
2022/04/11 08:48:29;;;;;;;2.50;1.50;;;;;;;10.42;52.82;96213.34;5059187;28;20222;-84
2022/04/11 08:50:56;;;;;;;4.30;1.10;;;;;;;10.68;53.31;96217.47;5059661;28;20198;-84
2022/04/11 08:53:24;;;;;;;1.90;1.17;;;;;;;10.75;52.69;96210.06;5057600;28;20284;-84
2022/04/11 08:55:53;;;;;;;2.50;1.20;;;;;;;10.81;54.80;96195.63;5059399;28;20206;-84
2022/04/11 08:58:21;;;;;;;3.37;1.63;;;;;;;10.75;57.71;96213.59;5060872;28;20202;-84
2022/04/11 09:00:48;;;;;;;4.20;1.80;;;;;;;10.95;57.15;96202.44;5059611;28;20205;-84
2022/04/11 09:03:15;;;;;;;3.33;1.80;;;;;;;10.87;57.46;96198.22;5059280;28;20219;-84
2022/04/11 09:05:43;;;;;;;3.87;1.70;;;;;;;10.93;56.80;96202.69;5066375;28;20217;-84
2022/04/11 09:08:10;;;;;;;2.23;1.70;;;;;;;11.08;56.71;96193.25;5055185;28;20222;-84
2022/04/11 09:10:38;;;;;;;2.87;1.40;;;;;;;11.06;56.73;96190.78;5049690;28;20202;-84
2022/04/11 09:13:08;;;;;;;4.77;1.70;;;;;;;11.06;56.67;96179.97;5056762;28;20234;-85
2022/04/11 09:15:41;;;;;;;3.03;1.80;;;;;;;11.09;56.56;96192.19;5046183;28;20240;-84
2022/04/11 09:18:08;;;;;;;2.60;1.50;;;;;;;11.26;54.11;96177.72;5061065;28;20263;-84
2022/04/11 09:20:35;;;;;;;4.10;1.70;;;;;;;11.53;50.70;96180.72;5064712;28;20205;-84
2022/04/11 09:23:03;;;;;;;2.07;1.50;;;;;;;11.61;46.63;96171.38;5063008;28;20233;-84
2022/04/11 09:25:31;;;;;;;1.90;1.50;;;;;;;11.74;46.39;96177.34;5061281;28;20293;-84
2022/04/11 09:28:11;;;;;;;4.37;1.83;;;;;;;11.89;48.35;96176.84;5056044;28;20243;-84
2022/04/11 09:30:40;;;;;;;3.23;1.90;;;;;;;11.98;50.11;96169.97;5079605;28;20233;-84
2022/04/11 09:33:08;;;;;;;2.57;1.70;;;;;;;12.16;48.37;96160.00;5056641;28;20215;-84
2022/04/11 09:35:38;;;;;;;2.63;1.70;;;;;;;12.31;48.88;96162.94;5051313;28;20223;-84
2022/04/11 09:38:13;;;;;;;3.67;1.63;;;;;;;12.27;49.99;96164.50;5060248;28;20274;-84
2022/04/11 09:40:42;;;;;;;3.07;2.20;;;;;;;12.41;51.88;96163.94;5059168;28;20197;-84
2022/04/11 09:43:12;;;;;;;5.87;2.00;;;;;;;12.52;51.33;96159.50;5055144;28;20228;-83
2022/04/11 09:45:45;;;;;;;5.93;2.87;;;;;;;12.68;54.45;96163.25;5052540;28;20278;-83
2022/04/11 09:48:17;;;;;;;9.27;3.07;;;;;;;12.71;57.75;96158.16;5059956;28;20229;-84
2022/04/11 09:50:44;;;;;;;3.57;2.10;;;;;;;12.62;55.43;96162.38;5059886;28;20208;-84
2022/04/11 09:53:14;;;;;;;3.23;1.90;;;;;;;12.60;54.34;96150.13;5053576;28;20232;-84
2022/04/11 09:55:43;;;;;;;8.80;3.63;;;;;;;12.69;56.63;96148.63;5058913;28;20296;-84
2022/04/11 09:58:11;;;;;;;11.23;2.80;;;;;;;12.82;56.00;96154.56;5062821;28;20224;-84
2022/04/11 10:00:41;;;;;;;6.17;2.73;;;;;;;13.01;55.18;96151.56;5061790;28;20206;-84
2022/04/11 10:03:08;;;;;;;3.87;1.90;;;;;;;12.96;54.95;96154.19;5061100;28;20220;-84
2022/04/11 10:05:36;;;;;;;6.00;2.23;;;;;;;12.93;55.61;96133.81;5054949;28;20217;-84
2022/04/11 10:08:05;;;;;;;2.30;1.50;;;;;;;12.70;55.12;96129.44;5069932;28;20308;-85
2022/04/11 10:10:34;;;;;;;8.10;2.63;;;;;;;12.86;54.29;96144.84;5062335;28;20297;-80
2022/04/11 10:13:01;;;;;;;3.43;1.80;;;;;;;13.06;53.44;96132.66;5055042;28;20194;-86
2022/04/11 10:15:30;;;;;;;2.33;1.87;;;;;;;13.23;51.68;96131.56;5075723;28;20247;-86
2022/04/11 10:17:58;;;;;;;3.23;1.50;;;;;;;13.25;51.77;96136.72;5052667;28;20274;-86
2022/04/11 10:20:27;;;;;;;3.17;1.47;;;;;;;13.09;51.01;96127.56;5054270;28;20266;-86
2022/04/11 10:23:09;;;;;;;3.40;2.10;;;;;;;13.27;51.84;96133.78;5059137;28;20221;-86
2022/04/11 10:25:45;;;;;;;4.50;2.60;;;;;;;13.35;52.90;96131.44;5053224;28;20377;-86
2022/04/11 10:28:18;;;;;;;6.73;1.90;;;;;;;13.39;51.45;96127.13;5057964;28;20225;-85
2022/04/11 10:31:04;;;;;;;3.17;1.67;;;;;;;13.51;49.37;96135.97;5075376;28;20296;-86
2022/04/11 10:33:49;;;;;;;3.27;1.80;;;;;;;13.71;50.69;96129.09;5060988;28;20213;-86
2022/04/11 10:36:30;;;;;;;2.17;1.60;;;;;;;13.83;50.46;96135.22;5057970;28;20209;-86
2022/04/11 10:39:26;;;;;;;3.30;1.60;;;;;;;13.98;51.14;96135.38;5058011;28;20252;-86
2022/04/11 10:42:13;;;;;;;2.60;1.50;;;;;;;14.22;48.92;96130.41;5057361;28;20248;-86
2022/04/11 10:44:42;;;;;;;2.17;1.50;;;;;;;14.36;48.08;96126.22;5052313;28;20266;-86
2022/04/11 10:47:30;;;;;;;2.43;1.53;;;;;;;14.44;47.26;96122.22;5047582;28;20205;-86
2022/04/11 10:50:26;;;;;;;1.50;1.40;;;;;;;14.56;46.79;96120.13;5056187;28;20225;-87
2022/04/11 10:53:23;;;;;;;2.80;1.40;;;;;;;14.37;46.00;96125.94;5064251;28;20337;-87
2022/04/11 10:56:07;;;;;;;2.03;1.40;;;;;;;13.95;46.18;96114.19;5049328;28;20202;-88
2022/04/11 10:58:49;;;;;;;1.67;1.33;;;;;;;13.94;46.49;96117.97;5058553;28;20233;-83
2022/04/11 11:01:56;;;;;;;2.83;1.40;;;;;;;14.03;46.44;96111.00;5059450;28;20244;-82
2022/04/11 11:04:30;;;;;;;2.53;1.70;;;;;;;14.15;46.37;96106.19;5071241;28;20213;-82
2022/04/11 11:07:26;;;;;;;3.43;1.40;;;;;;;14.36;44.66;96101.78;5062503;28;20241;-83
2022/04/11 11:10:01;;;;;;;3.37;1.73;;;;;;;14.35;45.00;96081.94;5061312;28;20319;-82
2022/04/11 11:12:28;;;;;;;2.90;1.63;;;;;;;14.46;45.40;96087.47;5060056;28;20205;-82
2022/04/11 11:14:56;;;;;;;1.77;1.60;;;;;;;14.49;45.82;96081.50;5055965;28;20255;-82
2022/04/11 11:17:57;;;;;;;2.10;1.57;;;;;;;14.66;44.78;96084.88;5066429;28;20280;-83
2022/04/11 11:20:32;;;;;;;3.03;1.37;;;;;;;14.72;46.00;96072.94;5064571;28;20201;-83
2022/04/11 11:23:16;;;;;;;1.90;1.70;;;;;;;15.01;44.76;96068.78;5053209;28;20201;-83
2022/04/11 11:25:43;;;;;;;2.03;1.37;;;;;;;15.11;44.18;96068.00;5053733;28;20205;-83
2022/04/11 11:28:13;;;;;;;1.90;1.43;;;;;;;15.07;44.40;96070.44;5062791;28;20215;-83
2022/04/11 11:30:41;;;;;;;1.60;1.50;;;;;;;15.26;41.56;96067.25;5070326;28;20214;-83
2022/04/11 11:33:09;;;;;;;2.80;1.50;;;;;;;15.38;42.66;96062.41;5059962;28;20220;-85
2022/04/11 11:35:50;;;;;;;1.60;1.50;;;;;;;15.37;42.08;96060.75;5062935;28;20224;-85
2022/04/11 11:38:22;;;;;;;3.63;1.60;;;;;;;15.41;41.80;96051.78;5059252;28;20216;-85
2022/04/11 11:40:54;;;;;;;2.37;1.50;;;;;;;15.71;42.77;96056.53;5057493;28;20213;-85
2022/04/11 11:43:23;;;;;;;2.57;1.53;;;;;;;15.84;40.48;96047.00;5056311;28;20194;-85
2022/04/11 11:45:50;;;;;;;1.83;1.50;;;;;;;15.89;39.84;96042.41;5061462;28;20293;-84
2022/04/11 11:48:25;;;;;;;1.60;1.50;;;;;;;15.90;39.88;96048.66;5062863;28;20214;-84
2022/04/11 11:50:58;;;;;;;3.03;1.50;;;;;;;15.93;39.59;96047.28;5052900;28;20201;-84